sensor_id;sensor_type;location;lat;lon;timestamp;P1;durP1;ratioP1;P2;durP2;ratioP2
46757;SDS011;32509;47.750;-3.396;2023-07-31T00:02:20;16.40;;;4.68;;
46757;SDS011;32509;47.750;-3.396;2023-07-31T00:04:46;6.68;;;4.22;;
46757;SDS011;32509;47.750;-3.396;2023-07-31T00:07:11;10.52;;;4.78;;
46757;SDS011;32509;47.750;-3.396;2023-07-31T00:09:37;14.52;;;5.10;;
46757;SDS011;32509;47.750;-3.396;2023-07-31T00:12:03;16.23;;;8.05;;
46757;SDS011;32509;47.750;-3.396;2023-07-31T00:14:29;13.18;;;4.47;;
46757;SDS011;32509;47.750;-3.396;2023-07-31T00:16:55;10.40;;;5.47;;
46757;SDS011;32509;47.750;-3.396;2023-07-31T00:19:20;14.45;;;5.25;;
46757;SDS011;32509;47.750;-3.396;2023-07-31T00:21:46;11.48;;;6.05;;
46757;SDS011;32509;47.750;-3.396;2023-07-31T00:24:12;14.07;;;5.57;;
46757;SDS011;32509;47.750;-3.396;2023-07-31T00:26:38;14.23;;;5.80;;
46757;SDS011;32509;47.750;-3.396;2023-07-31T00:29:03;12.10;;;4.97;;
46757;SDS011;32509;47.750;-3.396;2023-07-31T00:31:29;12.60;;;5.22;;
46757;SDS011;32509;47.750;-3.396;2023-07-31T00:33:55;8.77;;;5.05;;
46757;SDS011;32509;47.750;-3.396;2023-07-31T00:36:21;10.75;;;4.60;;
46757;SDS011;32509;47.750;-3.396;2023-07-31T00:38:46;8.32;;;4.97;;
46757;SDS011;32509;47.750;-3.396;2023-07-31T00:41:12;7.03;;;4.88;;
46757;SDS011;32509;47.750;-3.396;2023-07-31T00:43:38;11.27;;;4.10;;
46757;SDS011;32509;47.750;-3.396;2023-07-31T00:46:04;10.68;;;5.35;;
46757;SDS011;32509;47.750;-3.396;2023-07-31T00:48:30;16.73;;;6.72;;
46757;SDS011;32509;47.750;-3.396;2023-07-31T00:50:57;11.32;;;5.40;;
46757;SDS011;32509;47.750;-3.396;2023-07-31T00:53:24;12.43;;;5.78;;
46757;SDS011;32509;47.750;-3.396;2023-07-31T00:55:50;19.45;;;6.18;;
46757;SDS011;32509;47.750;-3.396;2023-07-31T00:58:17;7.38;;;4.63;;
46757;SDS011;32509;47.750;-3.396;2023-07-31T01:00:43;11.60;;;4.55;;
46757;SDS011;32509;47.750;-3.396;2023-07-31T01:03:09;7.75;;;5.28;;
46757;SDS011;32509;47.750;-3.396;2023-07-31T01:08:09;10.82;;;4.30;;
46757;SDS011;32509;47.750;-3.396;2023-07-31T01:10:48;13.23;;;4.63;;
46757;SDS011;32509;47.750;-3.396;2023-07-31T01:13:17;11.95;;;5.13;;
46757;SDS011;32509;47.750;-3.396;2023-07-31T01:15:44;12.48;;;5.40;;
46757;SDS011;32509;47.750;-3.396;2023-07-31T01:18:10;14.10;;;5.07;;
46757;SDS011;32509;47.750;-3.396;2023-07-31T01:20:35;9.52;;;5.13;;
46757;SDS011;32509;47.750;-3.396;2023-07-31T01:28:46;20.67;;;6.43;;
46757;SDS011;32509;47.750;-3.396;2023-07-31T01:31:37;13.80;;;5.32;;
46757;SDS011;32509;47.750;-3.396;2023-07-31T01:34:04;18.73;;;5.40;;
46757;SDS011;32509;47.750;-3.396;2023-07-31T01:36:33;11.30;;;4.88;;
46757;SDS011;32509;47.750;-3.396;2023-07-31T01:39:00;8.88;;;4.80;;
46757;SDS011;32509;47.750;-3.396;2023-07-31T01:41:26;16.10;;;5.95;;
46757;SDS011;32509;47.750;-3.396;2023-07-31T01:43:52;10.63;;;5.88;;
46757;SDS011;32509;47.750;-3.396;2023-07-31T01:46:18;16.98;;;6.97;;
46757;SDS011;32509;47.750;-3.396;2023-07-31T01:48:44;13.45;;;5.78;;
46757;SDS011;32509;47.750;-3.396;2023-07-31T01:51:09;11.02;;;5.45;;
46757;SDS011;32509;47.750;-3.396;2023-07-31T01:53:35;15.38;;;6.18;;
46757;SDS011;32509;47.750;-3.396;2023-07-31T01:56:01;13.88;;;5.32;;
46757;SDS011;32509;47.750;-3.396;2023-07-31T01:58:26;13.05;;;6.13;;
46757;SDS011;32509;47.750;-3.396;2023-07-31T02:00:52;20.45;;;5.85;;
46757;SDS011;32509;47.750;-3.396;2023-07-31T02:03:18;14.13;;;5.75;;
46757;SDS011;32509;47.750;-3.396;2023-07-31T02:05:44;13.57;;;6.15;;
46757;SDS011;32509;47.750;-3.396;2023-07-31T02:08:13;13.32;;;5.03;;
46757;SDS011;32509;47.750;-3.396;2023-07-31T02:10:39;19.30;;;6.57;;
46757;SDS011;32509;47.750;-3.396;2023-07-31T02:13:05;11.77;;;4.00;;
46757;SDS011;32509;47.750;-3.396;2023-07-31T02:15:31;20.08;;;5.32;;
46757;SDS011;32509;47.750;-3.396;2023-07-31T02:17:57;15.45;;;5.53;;
46757;SDS011;32509;47.750;-3.396;2023-07-31T02:20:23;14.32;;;5.72;;
46757;SDS011;32509;47.750;-3.396;2023-07-31T02:22:49;16.30;;;5.30;;
46757;SDS011;32509;47.750;-3.396;2023-07-31T02:25:14;14.10;;;4.90;;
46757;SDS011;32509;47.750;-3.396;2023-07-31T02:27:40;15.73;;;6.30;;
46757;SDS011;32509;47.750;-3.396;2023-07-31T02:30:06;14.60;;;4.88;;
46757;SDS011;32509;47.750;-3.396;2023-07-31T02:32:33;20.58;;;5.45;;
46757;SDS011;32509;47.750;-3.396;2023-07-31T02:34:58;13.35;;;4.90;;
46757;SDS011;32509;47.750;-3.396;2023-07-31T02:37:24;11.88;;;5.22;;
46757;SDS011;32509;47.750;-3.396;2023-07-31T02:39:50;12.13;;;4.70;;
46757;SDS011;32509;47.750;-3.396;2023-07-31T02:42:16;13.90;;;5.30;;
46757;SDS011;32509;47.750;-3.396;2023-07-31T02:44:42;12.45;;;5.15;;
46757;SDS011;32509;47.750;-3.396;2023-07-31T02:47:08;13.93;;;5.68;;
46757;SDS011;32509;47.750;-3.396;2023-07-31T02:49:33;17.92;;;5.53;;
46757;SDS011;32509;47.750;-3.396;2023-07-31T02:51:59;12.48;;;5.45;;
46757;SDS011;32509;47.750;-3.396;2023-07-31T02:54:25;17.45;;;5.57;;
46757;SDS011;32509;47.750;-3.396;2023-07-31T02:56:51;16.83;;;6.43;;
46757;SDS011;32509;47.750;-3.396;2023-07-31T02:59:17;14.80;;;5.32;;
46757;SDS011;32509;47.750;-3.396;2023-07-31T03:01:43;14.00;;;5.38;;
46757;SDS011;32509;47.750;-3.396;2023-07-31T03:04:09;9.35;;;4.55;;
46757;SDS011;32509;47.750;-3.396;2023-07-31T03:06:34;10.18;;;4.82;;
46757;SDS011;32509;47.750;-3.396;2023-07-31T03:09:00;20.00;;;6.45;;
46757;SDS011;32509;47.750;-3.396;2023-07-31T03:11:26;12.25;;;4.63;;
46757;SDS011;32509;47.750;-3.396;2023-07-31T03:13:52;15.07;;;4.93;;
46757;SDS011;32509;47.750;-3.396;2023-07-31T03:16:17;9.60;;;4.43;;
46757;SDS011;32509;47.750;-3.396;2023-07-31T03:18:46;12.88;;;4.95;;
46757;SDS011;32509;47.750;-3.396;2023-07-31T03:21:12;9.70;;;4.40;;
46757;SDS011;32509;47.750;-3.396;2023-07-31T03:23:38;12.45;;;5.45;;
46757;SDS011;32509;47.750;-3.396;2023-07-31T03:26:06;14.10;;;4.53;;
46757;SDS011;32509;47.750;-3.396;2023-07-31T03:28:32;10.77;;;4.50;;
46757;SDS011;32509;47.750;-3.396;2023-07-31T03:30:58;13.15;;;6.18;;
46757;SDS011;32509;47.750;-3.396;2023-07-31T03:33:24;10.63;;;4.53;;
46757;SDS011;32509;47.750;-3.396;2023-07-31T03:35:51;14.13;;;4.68;;
46757;SDS011;32509;47.750;-3.396;2023-07-31T03:38:16;12.57;;;4.30;;
46757;SDS011;32509;47.750;-3.396;2023-07-31T03:40:42;16.02;;;4.50;;
46757;SDS011;32509;47.750;-3.396;2023-07-31T03:43:08;13.30;;;4.15;;
46757;SDS011;32509;47.750;-3.396;2023-07-31T03:45:34;14.32;;;6.82;;
46757;SDS011;32509;47.750;-3.396;2023-07-31T03:48:00;16.38;;;7.03;;
46757;SDS011;32509;47.750;-3.396;2023-07-31T03:50:26;18.95;;;5.68;;
46757;SDS011;32509;47.750;-3.396;2023-07-31T03:52:52;12.13;;;5.38;;
46757;SDS011;32509;47.750;-3.396;2023-07-31T03:55:17;15.02;;;5.00;;
46757;SDS011;32509;47.750;-3.396;2023-07-31T03:57:43;13.70;;;4.00;;
46757;SDS011;32509;47.750;-3.396;2023-07-31T04:00:09;9.90;;;4.95;;
46757;SDS011;32509;47.750;-3.396;2023-07-31T04:02:35;16.08;;;3.70;;
46757;SDS011;32509;47.750;-3.396;2023-07-31T04:05:01;16.92;;;5.18;;
46757;SDS011;32509;47.750;-3.396;2023-07-31T04:07:27;10.55;;;4.60;;
46757;SDS011;32509;47.750;-3.396;2023-07-31T04:09:53;10.27;;;5.18;;
46757;SDS011;32509;47.750;-3.396;2023-07-31T04:12:19;12.27;;;4.22;;
46757;SDS011;32509;47.750;-3.396;2023-07-31T04:14:44;12.38;;;5.00;;
46757;SDS011;32509;47.750;-3.396;2023-07-31T04:17:10;13.32;;;5.45;;
46757;SDS011;32509;47.750;-3.396;2023-07-31T04:19:36;16.48;;;4.53;;
46757;SDS011;32509;47.750;-3.396;2023-07-31T04:22:01;11.40;;;5.07;;
46757;SDS011;32509;47.750;-3.396;2023-07-31T04:24:27;16.05;;;5.88;;
46757;SDS011;32509;47.750;-3.396;2023-07-31T04:26:53;10.65;;;4.40;;
46757;SDS011;32509;47.750;-3.396;2023-07-31T04:29:19;13.75;;;5.72;;
46757;SDS011;32509;47.750;-3.396;2023-07-31T04:31:45;8.85;;;4.00;;
46757;SDS011;32509;47.750;-3.396;2023-07-31T04:34:11;8.52;;;4.38;;
46757;SDS011;32509;47.750;-3.396;2023-07-31T04:36:37;9.68;;;5.07;;
46757;SDS011;32509;47.750;-3.396;2023-07-31T04:39:03;20.35;;;4.85;;
46757;SDS011;32509;47.750;-3.396;2023-07-31T04:41:29;8.57;;;3.70;;
46757;SDS011;32509;47.750;-3.396;2023-07-31T04:43:54;24.40;;;7.43;;
46757;SDS011;32509;47.750;-3.396;2023-07-31T04:46:20;14.40;;;5.13;;
46757;SDS011;32509;47.750;-3.396;2023-07-31T04:48:46;13.45;;;4.35;;
46757;SDS011;32509;47.750;-3.396;2023-07-31T04:51:12;12.25;;;3.70;;
46757;SDS011;32509;47.750;-3.396;2023-07-31T04:53:37;11.30;;;4.40;;
46757;SDS011;32509;47.750;-3.396;2023-07-31T04:56:03;12.57;;;5.03;;
46757;SDS011;32509;47.750;-3.396;2023-07-31T04:58:29;12.18;;;4.30;;
46757;SDS011;32509;47.750;-3.396;2023-07-31T05:00:55;16.55;;;5.13;;
46757;SDS011;32509;47.750;-3.396;2023-07-31T05:03:21;9.88;;;4.25;;
46757;SDS011;32509;47.750;-3.396;2023-07-31T05:05:46;12.18;;;5.18;;
46757;SDS011;32509;47.750;-3.396;2023-07-31T05:08:12;8.70;;;4.15;;
46757;SDS011;32509;47.750;-3.396;2023-07-31T05:10:38;16.88;;;5.57;;
46757;SDS011;32509;47.750;-3.396;2023-07-31T05:13:04;8.52;;;4.25;;
46757;SDS011;32509;47.750;-3.396;2023-07-31T05:15:30;13.40;;;5.13;;
46757;SDS011;32509;47.750;-3.396;2023-07-31T05:17:56;15.70;;;4.93;;
46757;SDS011;32509;47.750;-3.396;2023-07-31T05:20:22;15.18;;;5.30;;
46757;SDS011;32509;47.750;-3.396;2023-07-31T05:22:47;9.57;;;3.92;;
46757;SDS011;32509;47.750;-3.396;2023-07-31T05:25:13;12.30;;;4.90;;
46757;SDS011;32509;47.750;-3.396;2023-07-31T05:27:39;7.63;;;3.95;;
46757;SDS011;32509;47.750;-3.396;2023-07-31T05:30:05;14.27;;;5.53;;
46757;SDS011;32509;47.750;-3.396;2023-07-31T05:32:32;10.68;;;5.07;;
46757;SDS011;32509;47.750;-3.396;2023-07-31T05:34:58;8.20;;;3.95;;
46757;SDS011;32509;47.750;-3.396;2023-07-31T05:37:23;10.73;;;3.75;;
46757;SDS011;32509;47.750;-3.396;2023-07-31T05:39:49;8.98;;;4.47;;
46757;SDS011;32509;47.750;-3.396;2023-07-31T05:42:16;11.38;;;4.57;;
46757;SDS011;32509;47.750;-3.396;2023-07-31T05:44:42;14.52;;;5.03;;
46757;SDS011;32509;47.750;-3.396;2023-07-31T05:47:08;18.38;;;5.63;;
46757;SDS011;32509;47.750;-3.396;2023-07-31T05:49:34;11.43;;;4.28;;
46757;SDS011;32509;47.750;-3.396;2023-07-31T05:52:00;10.20;;;5.18;;
46757;SDS011;32509;47.750;-3.396;2023-07-31T05:54:25;9.02;;;4.22;;
46757;SDS011;32509;47.750;-3.396;2023-07-31T05:56:51;10.32;;;5.03;;
46757;SDS011;32509;47.750;-3.396;2023-07-31T05:59:17;16.75;;;6.03;;
46757;SDS011;32509;47.750;-3.396;2023-07-31T06:01:43;13.40;;;4.68;;
46757;SDS011;32509;47.750;-3.396;2023-07-31T06:04:09;12.32;;;4.25;;
46757;SDS011;32509;47.750;-3.396;2023-07-31T06:06:34;12.43;;;5.00;;
46757;SDS011;32509;47.750;-3.396;2023-07-31T06:09:00;7.43;;;3.90;;
46757;SDS011;32509;47.750;-3.396;2023-07-31T06:11:26;9.40;;;4.57;;
46757;SDS011;32509;47.750;-3.396;2023-07-31T06:13:52;14.32;;;4.60;;
46757;SDS011;32509;47.750;-3.396;2023-07-31T06:16:18;8.50;;;5.28;;
46757;SDS011;32509;47.750;-3.396;2023-07-31T06:18:43;12.32;;;5.03;;
46757;SDS011;32509;47.750;-3.396;2023-07-31T06:21:09;15.43;;;5.93;;
46757;SDS011;32509;47.750;-3.396;2023-07-31T06:23:36;11.35;;;4.55;;
46757;SDS011;32509;47.750;-3.396;2023-07-31T06:26:01;13.18;;;5.03;;
46757;SDS011;32509;47.750;-3.396;2023-07-31T06:28:28;14.98;;;5.00;;
46757;SDS011;32509;47.750;-3.396;2023-07-31T06:30:54;9.27;;;3.90;;
46757;SDS011;32509;47.750;-3.396;2023-07-31T06:33:20;9.52;;;3.75;;
46757;SDS011;32509;47.750;-3.396;2023-07-31T06:35:46;11.90;;;4.53;;
46757;SDS011;32509;47.750;-3.396;2023-07-31T06:38:11;17.00;;;6.30;;
46757;SDS011;32509;47.750;-3.396;2023-07-31T06:40:37;11.88;;;4.30;;
46757;SDS011;32509;47.750;-3.396;2023-07-31T06:43:03;18.50;;;5.38;;
46757;SDS011;32509;47.750;-3.396;2023-07-31T06:45:36;16.52;;;5.30;;
46757;SDS011;32509;47.750;-3.396;2023-07-31T06:48:03;18.33;;;6.97;;
46757;SDS011;32509;47.750;-3.396;2023-07-31T06:50:32;16.42;;;4.88;;
46757;SDS011;32509;47.750;-3.396;2023-07-31T06:52:58;16.25;;;5.13;;
46757;SDS011;32509;47.750;-3.396;2023-07-31T06:55:24;15.18;;;4.75;;
46757;SDS011;32509;47.750;-3.396;2023-07-31T06:57:51;11.70;;;5.68;;
46757;SDS011;32509;47.750;-3.396;2023-07-31T07:00:18;15.07;;;5.07;;
46757;SDS011;32509;47.750;-3.396;2023-07-31T07:02:45;14.45;;;5.18;;
46757;SDS011;32509;47.750;-3.396;2023-07-31T07:05:12;17.73;;;5.85;;
46757;SDS011;32509;47.750;-3.396;2023-07-31T07:07:38;12.90;;;6.00;;
46757;SDS011;32509;47.750;-3.396;2023-07-31T07:10:04;9.50;;;4.93;;
46757;SDS011;32509;47.750;-3.396;2023-07-31T07:12:31;23.50;;;4.93;;
46757;SDS011;32509;47.750;-3.396;2023-07-31T07:14:58;15.60;;;6.82;;
46757;SDS011;32509;47.750;-3.396;2023-07-31T07:17:24;17.63;;;5.82;;
46757;SDS011;32509;47.750;-3.396;2023-07-31T07:19:51;17.40;;;5.15;;
46757;SDS011;32509;47.750;-3.396;2023-07-31T07:22:17;12.20;;;5.78;;
46757;SDS011;32509;47.750;-3.396;2023-07-31T07:24:43;13.77;;;5.53;;
46757;SDS011;32509;47.750;-3.396;2023-07-31T07:27:09;21.75;;;5.50;;
46757;SDS011;32509;47.750;-3.396;2023-07-31T07:29:35;9.30;;;3.97;;
46757;SDS011;32509;47.750;-3.396;2023-07-31T07:32:00;18.05;;;6.22;;
46757;SDS011;32509;47.750;-3.396;2023-07-31T07:34:27;16.40;;;5.68;;
46757;SDS011;32509;47.750;-3.396;2023-07-31T07:36:53;19.98;;;5.65;;
46757;SDS011;32509;47.750;-3.396;2023-07-31T07:39:19;18.02;;;5.63;;
46757;SDS011;32509;47.750;-3.396;2023-07-31T07:41:45;19.88;;;5.72;;
46757;SDS011;32509;47.750;-3.396;2023-07-31T07:44:11;15.77;;;5.78;;
46757;SDS011;32509;47.750;-3.396;2023-07-31T07:46:37;14.68;;;6.10;;
46757;SDS011;32509;47.750;-3.396;2023-07-31T07:49:03;16.55;;;6.13;;
46757;SDS011;32509;47.750;-3.396;2023-07-31T07:51:29;17.17;;;5.22;;
46757;SDS011;32509;47.750;-3.396;2023-07-31T07:53:56;21.73;;;5.90;;
46757;SDS011;32509;47.750;-3.396;2023-07-31T07:56:23;15.73;;;5.80;;
46757;SDS011;32509;47.750;-3.396;2023-07-31T07:58:49;13.10;;;5.22;;
46757;SDS011;32509;47.750;-3.396;2023-07-31T08:01:15;18.15;;;5.95;;
46757;SDS011;32509;47.750;-3.396;2023-07-31T08:03:41;18.05;;;5.03;;
46757;SDS011;32509;47.750;-3.396;2023-07-31T08:06:07;15.95;;;5.88;;
46757;SDS011;32509;47.750;-3.396;2023-07-31T08:08:37;18.42;;;5.53;;
46757;SDS011;32509;47.750;-3.396;2023-07-31T08:11:03;13.18;;;4.45;;
46757;SDS011;32509;47.750;-3.396;2023-07-31T08:13:29;18.38;;;5.55;;
46757;SDS011;32509;47.750;-3.396;2023-07-31T08:15:54;21.17;;;5.75;;
46757;SDS011;32509;47.750;-3.396;2023-07-31T08:18:21;12.27;;;5.13;;
46757;SDS011;32509;47.750;-3.396;2023-07-31T08:20:46;18.88;;;5.97;;
46757;SDS011;32509;47.750;-3.396;2023-07-31T08:23:12;24.80;;;7.20;;
46757;SDS011;32509;47.750;-3.396;2023-07-31T08:25:38;16.58;;;4.97;;
46757;SDS011;32509;47.750;-3.396;2023-07-31T08:28:05;10.32;;;5.22;;
46757;SDS011;32509;47.750;-3.396;2023-07-31T08:30:31;13.95;;;4.60;;
46757;SDS011;32509;47.750;-3.396;2023-07-31T08:33:01;14.60;;;5.07;;
46757;SDS011;32509;47.750;-3.396;2023-07-31T08:35:27;17.55;;;5.90;;
46757;SDS011;32509;47.750;-3.396;2023-07-31T08:37:53;19.08;;;6.03;;
46757;SDS011;32509;47.750;-3.396;2023-07-31T08:40:19;14.65;;;5.63;;
46757;SDS011;32509;47.750;-3.396;2023-07-31T08:42:47;12.57;;;5.43;;
46757;SDS011;32509;47.750;-3.396;2023-07-31T08:45:14;17.50;;;7.25;;
46757;SDS011;32509;47.750;-3.396;2023-07-31T08:47:43;19.38;;;5.25;;
46757;SDS011;32509;47.750;-3.396;2023-07-31T08:50:12;17.13;;;5.95;;
46757;SDS011;32509;47.750;-3.396;2023-07-31T08:52:38;20.55;;;7.45;;
46757;SDS011;32509;47.750;-3.396;2023-07-31T08:55:05;19.15;;;6.22;;
46757;SDS011;32509;47.750;-3.396;2023-07-31T08:57:31;12.07;;;5.60;;
46757;SDS011;32509;47.750;-3.396;2023-07-31T09:00:00;19.75;;;5.72;;
46757;SDS011;32509;47.750;-3.396;2023-07-31T09:02:29;12.93;;;4.97;;
46757;SDS011;32509;47.750;-3.396;2023-07-31T09:05:03;21.13;;;6.43;;
46757;SDS011;32509;47.750;-3.396;2023-07-31T09:07:31;15.50;;;6.03;;
46757;SDS011;32509;47.750;-3.396;2023-07-31T09:09:59;12.32;;;5.40;;
46757;SDS011;32509;47.750;-3.396;2023-07-31T09:12:25;10.25;;;5.32;;
46757;SDS011;32509;47.750;-3.396;2023-07-31T09:14:50;13.05;;;4.63;;
46757;SDS011;32509;47.750;-3.396;2023-07-31T09:17:16;14.73;;;4.90;;
46757;SDS011;32509;47.750;-3.396;2023-07-31T09:19:55;10.07;;;4.35;;
46757;SDS011;32509;47.750;-3.396;2023-07-31T09:22:33;14.52;;;4.45;;
46757;SDS011;32509;47.750;-3.396;2023-07-31T09:30:25;9.57;;;4.80;;
46757;SDS011;32509;47.750;-3.396;2023-07-31T09:32:52;20.58;;;5.60;;
46757;SDS011;32509;47.750;-3.396;2023-07-31T09:35:30;7.28;;;4.00;;
46757;SDS011;32509;47.750;-3.396;2023-07-31T09:38:00;17.00;;;5.78;;
46757;SDS011;32509;47.750;-3.396;2023-07-31T09:40:34;9.35;;;3.80;;
46757;SDS011;32509;47.750;-3.396;2023-07-31T09:43:07;10.25;;;4.03;;
46757;SDS011;32509;47.750;-3.396;2023-07-31T09:45:37;16.90;;;5.78;;
46757;SDS011;32509;47.750;-3.396;2023-07-31T09:48:14;15.65;;;5.22;;
46757;SDS011;32509;47.750;-3.396;2023-07-31T09:50:43;13.57;;;4.55;;
46757;SDS011;32509;47.750;-3.396;2023-07-31T09:53:10;18.20;;;6.53;;
46757;SDS011;32509;47.750;-3.396;2023-07-31T09:55:36;19.38;;;5.65;;
46757;SDS011;32509;47.750;-3.396;2023-07-31T09:58:06;14.23;;;5.90;;
46757;SDS011;32509;47.750;-3.396;2023-07-31T10:00:34;15.05;;;6.10;;
46757;SDS011;32509;47.750;-3.396;2023-07-31T10:03:01;13.35;;;4.75;;
46757;SDS011;32509;47.750;-3.396;2023-07-31T10:05:34;10.43;;;4.03;;
46757;SDS011;32509;47.750;-3.396;2023-07-31T10:08:01;9.43;;;3.72;;
46757;SDS011;32509;47.750;-3.396;2023-07-31T10:10:28;12.27;;;4.00;;
46757;SDS011;32509;47.750;-3.396;2023-07-31T10:12:54;10.85;;;4.50;;
46757;SDS011;32509;47.750;-3.396;2023-07-31T10:15:24;10.40;;;4.10;;
46757;SDS011;32509;47.750;-3.396;2023-07-31T10:17:51;12.48;;;3.72;;
46757;SDS011;32509;47.750;-3.396;2023-07-31T10:20:19;12.05;;;4.80;;
46757;SDS011;32509;47.750;-3.396;2023-07-31T10:22:46;15.32;;;5.80;;
46757;SDS011;32509;47.750;-3.396;2023-07-31T10:25:13;14.63;;;5.50;;
46757;SDS011;32509;47.750;-3.396;2023-07-31T10:27:42;10.60;;;4.70;;
46757;SDS011;32509;47.750;-3.396;2023-07-31T10:30:11;13.70;;;5.68;;
46757;SDS011;32509;47.750;-3.396;2023-07-31T10:32:40;14.93;;;4.60;;
46757;SDS011;32509;47.750;-3.396;2023-07-31T10:35:08;11.13;;;4.22;;
46757;SDS011;32509;47.750;-3.396;2023-07-31T10:42:32;15.93;;;6.07;;
46757;SDS011;32509;47.750;-3.396;2023-07-31T10:45:01;13.55;;;5.38;;
46757;SDS011;32509;47.750;-3.396;2023-07-31T10:47:28;13.77;;;5.05;;
46757;SDS011;32509;47.750;-3.396;2023-07-31T10:52:38;7.75;;;4.47;;
46757;SDS011;32509;47.750;-3.396;2023-07-31T10:55:14;15.50;;;5.90;;
46757;SDS011;32509;47.750;-3.396;2023-07-31T10:57:44;20.35;;;5.75;;
46757;SDS011;32509;47.750;-3.396;2023-07-31T11:00:19;8.55;;;4.78;;
46757;SDS011;32509;47.750;-3.396;2023-07-31T11:02:59;20.40;;;7.13;;
46757;SDS011;32509;47.750;-3.396;2023-07-31T11:05:43;15.75;;;5.03;;
46757;SDS011;32509;47.750;-3.396;2023-07-31T11:08:17;15.60;;;5.20;;
46757;SDS011;32509;47.750;-3.396;2023-07-31T11:10:48;17.10;;;5.65;;
46757;SDS011;32509;47.750;-3.396;2023-07-31T11:13:16;7.75;;;4.13;;
46757;SDS011;32509;47.750;-3.396;2023-07-31T11:15:41;13.77;;;4.53;;
46757;SDS011;32509;47.750;-3.396;2023-07-31T11:18:07;9.45;;;5.07;;
46757;SDS011;32509;47.750;-3.396;2023-07-31T11:20:35;10.20;;;4.38;;
46757;SDS011;32509;47.750;-3.396;2023-07-31T11:23:02;8.57;;;4.05;;
46757;SDS011;32509;47.750;-3.396;2023-07-31T11:25:32;7.85;;;4.00;;
46757;SDS011;32509;47.750;-3.396;2023-07-31T11:30:31;9.50;;;4.28;;
46757;SDS011;32509;47.750;-3.396;2023-07-31T11:32:57;11.07;;;4.63;;
46757;SDS011;32509;47.750;-3.396;2023-07-31T11:35:23;8.77;;;4.22;;
46757;SDS011;32509;47.750;-3.396;2023-07-31T11:37:49;12.10;;;4.95;;
46757;SDS011;32509;47.750;-3.396;2023-07-31T11:40:14;6.57;;;3.83;;
46757;SDS011;32509;47.750;-3.396;2023-07-31T11:42:40;8.48;;;3.85;;
46757;SDS011;32509;47.750;-3.396;2023-07-31T11:45:07;14.60;;;4.95;;
46757;SDS011;32509;47.750;-3.396;2023-07-31T11:47:34;7.40;;;4.07;;
46757;SDS011;32509;47.750;-3.396;2023-07-31T11:50:02;12.73;;;5.15;;
46757;SDS011;32509;47.750;-3.396;2023-07-31T11:52:34;12.00;;;5.68;;
46757;SDS011;32509;47.750;-3.396;2023-07-31T11:57:32;18.15;;;5.85;;
46757;SDS011;32509;47.750;-3.396;2023-07-31T11:59:58;6.93;;;4.00;;
46757;SDS011;32509;47.750;-3.396;2023-07-31T12:02:24;19.05;;;6.60;;
46757;SDS011;32509;47.750;-3.396;2023-07-31T12:04:50;13.57;;;5.57;;
46757;SDS011;32509;47.750;-3.396;2023-07-31T12:07:16;16.48;;;6.40;;
46757;SDS011;32509;47.750;-3.396;2023-07-31T12:09:54;14.05;;;6.05;;
46757;SDS011;32509;47.750;-3.396;2023-07-31T12:12:20;16.65;;;6.43;;
46757;SDS011;32509;47.750;-3.396;2023-07-31T12:14:47;9.55;;;4.80;;
46757;SDS011;32509;47.750;-3.396;2023-07-31T12:17:13;11.77;;;4.55;;
46757;SDS011;32509;47.750;-3.396;2023-07-31T12:19:40;17.85;;;6.30;;
46757;SDS011;32509;47.750;-3.396;2023-07-31T12:22:13;17.92;;;5.95;;
46757;SDS011;32509;47.750;-3.396;2023-07-31T12:24:40;12.30;;;6.18;;
46757;SDS011;32509;47.750;-3.396;2023-07-31T12:27:13;22.75;;;7.10;;
46757;SDS011;32509;47.750;-3.396;2023-07-31T12:29:41;14.05;;;4.93;;
46757;SDS011;32509;47.750;-3.396;2023-07-31T12:32:22;11.35;;;5.82;;
46757;SDS011;32509;47.750;-3.396;2023-07-31T12:34:53;16.73;;;6.00;;
46757;SDS011;32509;47.750;-3.396;2023-07-31T12:37:20;20.60;;;5.85;;
46757;SDS011;32509;47.750;-3.396;2023-07-31T12:39:49;22.55;;;6.80;;
46757;SDS011;32509;47.750;-3.396;2023-07-31T12:42:17;11.80;;;5.15;;
46757;SDS011;32509;47.750;-3.396;2023-07-31T12:44:42;19.45;;;7.03;;
46757;SDS011;32509;47.750;-3.396;2023-07-31T12:47:08;20.23;;;6.53;;
46757;SDS011;32509;47.750;-3.396;2023-07-31T12:49:34;19.67;;;4.90;;
46757;SDS011;32509;47.750;-3.396;2023-07-31T12:52:00;17.23;;;7.30;;
46757;SDS011;32509;47.750;-3.396;2023-07-31T12:54:25;22.73;;;6.65;;
46757;SDS011;32509;47.750;-3.396;2023-07-31T12:56:51;12.65;;;6.53;;
46757;SDS011;32509;47.750;-3.396;2023-07-31T12:59:17;19.27;;;6.32;;
46757;SDS011;32509;47.750;-3.396;2023-07-31T13:01:43;13.35;;;5.97;;
46757;SDS011;32509;47.750;-3.396;2023-07-31T13:04:09;19.52;;;6.35;;
46757;SDS011;32509;47.750;-3.396;2023-07-31T13:06:34;18.33;;;5.82;;
46757;SDS011;32509;47.750;-3.396;2023-07-31T13:09:00;19.05;;;6.80;;
46757;SDS011;32509;47.750;-3.396;2023-07-31T13:11:26;16.17;;;6.10;;
46757;SDS011;32509;47.750;-3.396;2023-07-31T13:13:51;19.88;;;7.70;;
46757;SDS011;32509;47.750;-3.396;2023-07-31T13:16:17;20.13;;;7.28;;
46757;SDS011;32509;47.750;-3.396;2023-07-31T13:18:43;14.50;;;5.97;;
46757;SDS011;32509;47.750;-3.396;2023-07-31T13:21:09;20.20;;;7.63;;
46757;SDS011;32509;47.750;-3.396;2023-07-31T13:23:34;22.75;;;6.97;;
46757;SDS011;32509;47.750;-3.396;2023-07-31T13:26:00;24.02;;;7.95;;
46757;SDS011;32509;47.750;-3.396;2023-07-31T13:28:26;21.60;;;7.45;;
46757;SDS011;32509;47.750;-3.396;2023-07-31T13:30:53;25.88;;;7.78;;
46757;SDS011;32509;47.750;-3.396;2023-07-31T13:33:18;16.27;;;7.10;;
46757;SDS011;32509;47.750;-3.396;2023-07-31T13:35:44;16.13;;;6.22;;
46757;SDS011;32509;47.750;-3.396;2023-07-31T13:38:10;21.70;;;6.93;;
46757;SDS011;32509;47.750;-3.396;2023-07-31T13:40:36;19.48;;;6.10;;
46757;SDS011;32509;47.750;-3.396;2023-07-31T13:43:01;19.25;;;6.93;;
46757;SDS011;32509;47.750;-3.396;2023-07-31T13:45:27;18.80;;;6.82;;
46757;SDS011;32509;47.750;-3.396;2023-07-31T13:47:53;23.63;;;8.68;;
46757;SDS011;32509;47.750;-3.396;2023-07-31T13:50:20;24.50;;;8.48;;
46757;SDS011;32509;47.750;-3.396;2023-07-31T13:52:47;30.23;;;8.52;;
46757;SDS011;32509;47.750;-3.396;2023-07-31T13:55:13;23.42;;;7.65;;
46757;SDS011;32509;47.750;-3.396;2023-07-31T13:57:39;19.30;;;7.13;;
46757;SDS011;32509;47.750;-3.396;2023-07-31T14:00:05;26.25;;;9.18;;
46757;SDS011;32509;47.750;-3.396;2023-07-31T14:02:31;26.45;;;9.35;;
46757;SDS011;32509;47.750;-3.396;2023-07-31T14:04:57;31.70;;;10.77;;
46757;SDS011;32509;47.750;-3.396;2023-07-31T14:07:22;24.80;;;8.38;;
46757;SDS011;32509;47.750;-3.396;2023-07-31T14:09:48;28.40;;;9.45;;
46757;SDS011;32509;47.750;-3.396;2023-07-31T14:12:14;23.95;;;9.73;;
46757;SDS011;32509;47.750;-3.396;2023-07-31T14:14:40;27.95;;;9.02;;
46757;SDS011;32509;47.750;-3.396;2023-07-31T14:17:05;29.65;;;9.07;;
46757;SDS011;32509;47.750;-3.396;2023-07-31T14:19:31;29.77;;;8.23;;
46757;SDS011;32509;47.750;-3.396;2023-07-31T14:22:00;25.58;;;8.48;;
46757;SDS011;32509;47.750;-3.396;2023-07-31T14:24:25;21.80;;;10.63;;
46757;SDS011;32509;47.750;-3.396;2023-07-31T14:26:51;23.90;;;8.65;;
46757;SDS011;32509;47.750;-3.396;2023-07-31T14:29:17;26.27;;;9.65;;
46757;SDS011;32509;47.750;-3.396;2023-07-31T14:31:43;52.42;;;9.35;;
46757;SDS011;32509;47.750;-3.396;2023-07-31T14:34:08;22.90;;;8.38;;
46757;SDS011;32509;47.750;-3.396;2023-07-31T14:36:34;24.45;;;9.30;;
46757;SDS011;32509;47.750;-3.396;2023-07-31T14:39:00;20.52;;;8.02;;
46757;SDS011;32509;47.750;-3.396;2023-07-31T14:41:26;28.55;;;9.98;;
46757;SDS011;32509;47.750;-3.396;2023-07-31T14:43:51;25.95;;;9.32;;
46757;SDS011;32509;47.750;-3.396;2023-07-31T14:46:17;27.17;;;9.02;;
46757;SDS011;32509;47.750;-3.396;2023-07-31T14:48:43;28.13;;;9.80;;